Terminal Aerodrome Forecast
Issued by NWS Cleveland, OH

Home | Current Version | Previous Version | Text Only | Print | Product List | Glossary On
Versions: 1 2 3 4 5 6 7 8 9 10 11 12 13 14 15 16
000
FTUS41 KCLE 301900 AAB
TAFERI
TAF AMD
KERI 301914Z 3019/0118 VRB05KT P6SM BKN015
      TEMPO 3020/3024 3SM -SHRA BR SCT010 OVC025
     FM010000 VRB04KT P6SM SCT015 BKN035
      TEMPO 0101/0105 3SM -SHRA BKN015
     FM010500 02004KT 3SM BR BKN012
     FM010800 08004KT 1SM BR BKN005 OVC012
     FM011500 09007KT 6SM HZ OVC012=

USA.gov is the U.S. government's official web portal to all federal, state and local government web resources and services.